Time;durP1;ratioP1;P1;durP2;ratioP2;P2;SDS_P1;SDS_P2;PMS_P1;PMS_P2;Temp;Humidity;BMP_temperature;BMP_pressure;BME280_temperature;BME280_humidity;BME280_pressure;Samples;Min_cycle;Max_cycle;Signal;HPM_P1;HPM_P2
2021/09/19 00:01:56;;;;;;;5.22;3.88;;;;;;;;;;5113713;28;20081;-72
2021/09/19 00:04:22;;;;;;;6.22;4.43;;;;;;;;;;5113591;28;20015;-70
2021/09/19 00:06:49;;;;;;;7.75;3.90;;;;;;;;;;5113042;28;20103;-72
2021/09/19 00:09:15;;;;;;;4.85;4.13;;;;;;;;;;5114051;28;20357;-72
2021/09/19 00:11:43;;;;;;;8.20;4.53;;;;;;;;;;5113498;28;20544;-73
2021/09/19 00:14:10;;;;;;;6.15;4.25;;;;;;;;;;5094655;28;20046;-73
2021/09/19 00:16:36;;;;;;;5.43;4.45;;;;;;;;;;5113120;28;20102;-73
2021/09/19 00:19:02;;;;;;;9.68;4.70;;;;;;;;;;5109832;28;20162;-73
2021/09/19 00:21:28;;;;;;;5.68;4.25;;;;;;;;;;5113343;28;20111;-72
2021/09/19 00:23:54;;;;;;;8.13;4.15;;;;;;;;;;5113567;28;20031;-73
2021/09/19 00:26:20;;;;;;;6.72;4.45;;;;;;;;;;5112764;28;20032;-73
2021/09/19 00:28:47;;;;;;;7.15;4.40;;;;;;;;;;5112913;28;20377;-73
2021/09/19 00:31:13;;;;;;;11.00;4.22;;;;;;;;;;5113043;28;20028;-73
2021/09/19 00:33:39;;;;;;;6.38;4.18;;;;;;;;;;5112739;28;20031;-73
2021/09/19 00:36:05;;;;;;;5.25;4.20;;;;;;;;;;5112921;28;20012;-73
2021/09/19 00:38:31;;;;;;;6.40;4.05;;;;;;;;;;5113645;28;20389;-71
2021/09/19 00:40:57;;;;;;;5.72;4.10;;;;;;;;;;5114270;28;20047;-71
2021/09/19 00:43:23;;;;;;;6.60;4.63;;;;;;;;;;5112857;28;20028;-72
2021/09/19 00:45:49;;;;;;;7.65;4.82;;;;;;;;;;5112751;28;20123;-73
2021/09/19 00:48:15;;;;;;;6.00;4.30;;;;;;;;;;5112938;28;20024;-72
2021/09/19 00:50:41;;;;;;;5.78;4.13;;;;;;;;;;5113028;28;20020;-72
2021/09/19 00:53:08;;;;;;;5.10;4.30;;;;;;;;;;5112226;28;20063;-72
2021/09/19 00:55:35;;;;;;;7.80;4.80;;;;;;;;;;5113012;28;20034;-72
2021/09/19 00:58:04;;;;;;;5.05;4.55;;;;;;;;;;5112262;28;20154;-73
2021/09/19 01:00:31;;;;;;;8.07;4.70;;;;;;;;;;5112197;28;20036;-72
2021/09/19 01:02:57;;;;;;;6.38;4.22;;;;;;;;;;5112378;28;20041;-71
2021/09/19 01:05:23;;;;;;;6.93;4.68;;;;;;;;;;5112705;28;20028;-72
2021/09/19 01:07:50;;;;;;;7.10;4.63;;;;;;;;;;5112997;28;20031;-73
2021/09/19 01:10:18;;;;;;;6.78;4.47;;;;;;;;;;5112387;28;20019;-72
2021/09/19 01:12:44;;;;;;;7.22;4.40;;;;;;;;;;5112179;28;20062;-73
2021/09/19 01:15:12;;;;;;;9.05;4.45;;;;;;;;;;5111780;28;20030;-72
2021/09/19 01:17:39;;;;;;;8.68;4.68;;;;;;;;;;5106047;28;20111;-72
2021/09/19 01:20:09;;;;;;;7.78;4.50;;;;;;;;;;5109974;28;20120;-72
2021/09/19 01:22:35;;;;;;;5.82;4.63;;;;;;;;;;5112613;28;20154;-72
2021/09/19 01:25:04;;;;;;;8.88;4.65;;;;;;;;;;5112149;28;20023;-71
2021/09/19 01:27:31;;;;;;;7.40;4.60;;;;;;;;;;5112101;28;20031;-72
2021/09/19 01:29:57;;;;;;;7.15;4.80;;;;;;;;;;5111931;28;20043;-69
2021/09/19 01:32:23;;;;;;;6.55;4.35;;;;;;;;;;5111975;28;20163;-73
2021/09/19 01:34:50;;;;;;;7.63;4.68;;;;;;;;;;5111865;28;20409;-72
2021/09/19 01:37:16;;;;;;;6.32;4.93;;;;;;;;;;5112384;28;20085;-72
2021/09/19 01:39:43;;;;;;;8.55;4.40;;;;;;;;;;5112375;28;20507;-73
2021/09/19 01:42:09;;;;;;;5.05;4.25;;;;;;;;;;5112651;28;20401;-71
2021/09/19 01:44:35;;;;;;;9.30;4.82;;;;;;;;;;5109745;28;20016;-72
2021/09/19 01:47:01;;;;;;;12.90;4.90;;;;;;;;;;5112415;28;20073;-71
2021/09/19 01:49:27;;;;;;;10.95;4.90;;;;;;;;;;5111829;28;20031;-72
2021/09/19 01:51:56;;;;;;;11.15;4.88;;;;;;;;;;5112036;28;20051;-71
2021/09/19 01:54:22;;;;;;;8.95;4.65;;;;;;;;;;5111712;28;20024;-69
2021/09/19 01:56:48;;;;;;;10.93;4.07;;;;;;;;;;5112348;28;20488;-73
2021/09/19 01:59:14;;;;;;;9.38;4.90;;;;;;;;;;5111518;28;20377;-73
2021/09/19 02:01:40;;;;;;;5.82;4.43;;;;;;;;;;5111310;28;20020;-70
2021/09/19 02:04:06;;;;;;;7.13;4.32;;;;;;;;;;5112123;28;20024;-73
2021/09/19 02:06:32;;;;;;;5.57;4.30;;;;;;;;;;5111593;28;20040;-72
2021/09/19 02:08:58;;;;;;;7.50;4.65;;;;;;;;;;5112228;28;20020;-73
2021/09/19 02:11:27;;;;;;;8.82;5.00;;;;;;;;;;5113425;28;20038;-71
2021/09/19 02:13:54;;;;;;;6.40;4.28;;;;;;;;;;5111951;28;20476;-72
2021/09/19 02:16:23;;;;;;;6.30;4.85;;;;;;;;;;5111819;28;20048;-72
2021/09/19 02:18:50;;;;;;;5.38;4.50;;;;;;;;;;5107594;28;20103;-72
2021/09/19 02:21:17;;;;;;;7.60;5.13;;;;;;;;;;5111350;28;20043;-73
2021/09/19 02:23:43;;;;;;;7.10;4.57;;;;;;;;;;5111341;28;20031;-73
2021/09/19 02:26:09;;;;;;;6.97;5.13;;;;;;;;;;5111927;28;20103;-73
2021/09/19 02:28:35;;;;;;;8.48;5.25;;;;;;;;;;5111516;28;20050;-72
2021/09/19 02:31:01;;;;;;;8.23;5.35;;;;;;;;;;5114330;28;20050;-73
2021/09/19 02:33:30;;;;;;;7.80;5.15;;;;;;;;;;5115472;28;20040;-73
2021/09/19 02:35:56;;;;;;;6.75;4.70;;;;;;;;;;5115038;28;20031;-73
2021/09/19 02:38:22;;;;;;;7.18;4.72;;;;;;;;;;5115824;28;20024;-73
2021/09/19 02:40:51;;;;;;;13.18;5.30;;;;;;;;;;5115215;28;20384;-73
2021/09/19 02:43:17;;;;;;;6.20;4.30;;;;;;;;;;5118658;28;20023;-73
2021/09/19 02:45:43;;;;;;;6.03;5.32;;;;;;;;;;5115262;28;20035;-72
2021/09/19 02:48:09;;;;;;;8.00;4.68;;;;;;;;;;5115282;28;20031;-73
2021/09/19 02:50:35;;;;;;;10.93;4.97;;;;;;;;;;5115547;28;20024;-73
2021/09/19 02:53:01;;;;;;;7.25;4.90;;;;;;;;;;5114148;28;20076;-73
2021/09/19 02:55:28;;;;;;;7.85;4.72;;;;;;;;;;5109685;28;20023;-72
2021/09/19 02:57:54;;;;;;;8.13;4.70;;;;;;;;;;5114916;28;20106;-72
2021/09/19 03:00:21;;;;;;;7.13;4.95;;;;;;;;;;5114736;28;20034;-73
2021/09/19 03:02:47;;;;;;;8.40;5.15;;;;;;;;;;5115103;28;20028;-73
2021/09/19 03:05:14;;;;;;;8.27;4.57;;;;;;;;;;5114308;28;20072;-71
2021/09/19 03:07:40;;;;;;;5.25;4.30;;;;;;;;;;5115000;28;20027;-72
2021/09/19 03:10:07;;;;;;;8.48;5.13;;;;;;;;;;5122393;28;20480;-73
2021/09/19 03:12:33;;;;;;;7.32;5.10;;;;;;;;;;5114274;28;20031;-69
2021/09/19 03:15:01;;;;;;;9.57;5.10;;;;;;;;;;5113750;28;20034;-73
2021/09/19 03:17:28;;;;;;;5.95;4.80;;;;;;;;;;5109421;28;20155;-73
2021/09/19 03:19:54;;;;;;;7.10;4.50;;;;;;;;;;5111172;28;20036;-73
2021/09/19 03:22:20;;;;;;;8.68;5.10;;;;;;;;;;5114265;28;20031;-73
2021/09/19 03:24:46;;;;;;;9.23;4.97;;;;;;;;;;5114511;28;20019;-72
2021/09/19 03:27:12;;;;;;;6.72;5.10;;;;;;;;;;5113834;28;20038;-72
2021/09/19 03:29:38;;;;;;;7.35;5.57;;;;;;;;;;5114129;28;20507;-73
2021/09/19 03:32:04;;;;;;;5.75;5.00;;;;;;;;;;5114011;28;20501;-72
2021/09/19 03:34:33;;;;;;;7.20;5.35;;;;;;;;;;5114109;28;20039;-73
2021/09/19 03:37:00;;;;;;;7.43;5.70;;;;;;;;;;5113938;28;20023;-74
2021/09/19 03:39:26;;;;;;;5.82;4.97;;;;;;;;;;5114285;28;20206;-73
2021/09/19 03:41:52;;;;;;;7.35;5.03;;;;;;;;;;5114109;28;20027;-73
2021/09/19 03:44:18;;;;;;;6.25;5.20;;;;;;;;;;5113754;28;20031;-72
2021/09/19 03:46:44;;;;;;;7.47;6.03;;;;;;;;;;5113594;28;20465;-73
2021/09/19 03:49:10;;;;;;;7.68;5.68;;;;;;;;;;5114257;28;20487;-70
2021/09/19 03:51:36;;;;;;;6.45;5.15;;;;;;;;;;5113783;28;20427;-71
2021/09/19 03:54:03;;;;;;;6.65;5.35;;;;;;;;;;5113196;28;20393;-73
2021/09/19 03:56:29;;;;;;;6.57;5.00;;;;;;;;;;5113867;28;20498;-73
2021/09/19 03:59:03;;;;;;;5.68;4.75;;;;;;;;;;5122051;28;20031;-72
2021/09/19 04:01:29;;;;;;;7.10;5.38;;;;;;;;;;5117757;28;20589;-72
2021/09/19 04:03:57;;;;;;;7.13;5.10;;;;;;;;;;5113592;28;20475;-73
2021/09/19 04:06:23;;;;;;;7.60;5.78;;;;;;;;;;5113680;28;20135;-73
2021/09/19 04:08:49;;;;;;;7.22;5.65;;;;;;;;;;5111437;28;20560;-72
2021/09/19 04:11:16;;;;;;;6.88;5.13;;;;;;;;;;5113945;28;20049;-73
2021/09/19 04:13:42;;;;;;;9.48;5.22;;;;;;;;;;5113109;28;20071;-72
2021/09/19 04:16:08;;;;;;;7.85;5.25;;;;;;;;;;5113422;28;20103;-72
2021/09/19 04:18:34;;;;;;;7.57;5.20;;;;;;;;;;5109327;28;21858;-72
2021/09/19 04:21:00;;;;;;;8.60;5.07;;;;;;;;;;5113309;28;20063;-72
2021/09/19 04:23:26;;;;;;;7.35;5.57;;;;;;;;;;5113247;28;20081;-73
2021/09/19 04:25:52;;;;;;;7.18;5.05;;;;;;;;;;5113369;28;20028;-73
2021/09/19 04:28:18;;;;;;;9.93;5.88;;;;;;;;;;5113393;28;20384;-70
2021/09/19 04:30:44;;;;;;;15.45;5.55;;;;;;;;;;5112077;28;20627;-70
2021/09/19 04:33:11;;;;;;;15.73;5.78;;;;;;;;;;5112709;28;20185;-72
2021/09/19 04:35:37;;;;;;;19.10;5.90;;;;;;;;;;5111982;28;20081;-69
2021/09/19 04:38:03;;;;;;;8.18;5.72;;;;;;;;;;5112946;28;20034;-71
2021/09/19 04:40:29;;;;;;;10.20;5.75;;;;;;;;;;5113552;28;20403;-72
2021/09/19 04:42:55;;;;;;;20.92;5.78;;;;;;;;;;5112762;28;20034;-72
2021/09/19 04:45:24;;;;;;;20.13;5.68;;;;;;;;;;5113032;28;20044;-71
2021/09/19 04:47:50;;;;;;;10.15;5.18;;;;;;;;;;5112910;28;20028;-72
2021/09/19 04:50:16;;;;;;;8.05;5.18;;;;;;;;;;5113288;28;20527;-71
2021/09/19 04:52:42;;;;;;;6.13;5.10;;;;;;;;;;5111820;28;20035;-72
2021/09/19 04:55:08;;;;;;;6.93;5.15;;;;;;;;;;5112566;28;20059;-72
2021/09/19 04:57:34;;;;;;;8.82;5.47;;;;;;;;;;5112770;28;20058;-67
2021/09/19 05:00:00;;;;;;;9.80;5.65;;;;;;;;;;5105398;28;20424;-69
2021/09/19 05:02:26;;;;;;;7.57;5.68;;;;;;;;;;5111238;28;20023;-68
2021/09/19 05:04:54;;;;;;;9.43;5.15;;;;;;;;;;5117253;28;20031;-72
2021/09/19 05:07:20;;;;;;;13.35;6.50;;;;;;;;;;5117244;28;20022;-71
2021/09/19 05:09:46;;;;;;;12.07;5.32;;;;;;;;;;5112239;28;20080;-72
2021/09/19 05:12:12;;;;;;;7.65;5.50;;;;;;;;;;5111538;28;20019;-70
2021/09/19 05:14:38;;;;;;;8.45;5.50;;;;;;;;;;5091549;28;20058;-73
2021/09/19 05:17:04;;;;;;;8.48;5.53;;;;;;;;;;5111953;28;20015;-71
2021/09/19 05:19:30;;;;;;;10.73;5.22;;;;;;;;;;5107000;28;20080;-66
2021/09/19 05:21:56;;;;;;;7.55;5.07;;;;;;;;;;5109290;28;20148;-71
2021/09/19 05:24:24;;;;;;;9.68;5.28;;;;;;;;;;5100775;28;20044;-73
2021/09/19 05:26:50;;;;;;;7.93;5.38;;;;;;;;;;5110661;28;20066;-73
2021/09/19 05:29:16;;;;;;;6.40;5.13;;;;;;;;;;5110373;28;20399;-67
2021/09/19 05:31:42;;;;;;;8.02;4.60;;;;;;;;;;5097307;28;20028;-71
2021/09/19 05:34:08;;;;;;;5.85;4.20;;;;;;;;;;5109695;28;20039;-82
2021/09/19 05:36:34;;;;;;;8.10;5.45;;;;;;;;;;5092051;28;20467;-70
2021/09/19 05:39:00;;;;;;;6.13;5.10;;;;;;;;;;5109552;28;20028;-67
2021/09/19 05:41:26;;;;;;;6.50;4.70;;;;;;;;;;5109989;28;20027;-69
2021/09/19 05:43:54;;;;;;;5.70;4.75;;;;;;;;;;5109336;28;20521;-75
2021/09/19 05:46:21;;;;;;;8.88;4.78;;;;;;;;;;5109118;28;21200;-73
2021/09/19 05:48:47;;;;;;;7.25;4.40;;;;;;;;;;5109167;28;20419;-69
2021/09/19 05:51:13;;;;;;;7.03;4.93;;;;;;;;;;5115035;28;20439;-73
2021/09/19 05:53:39;;;;;;;7.25;4.85;;;;;;;;;;5103147;28;20031;-66
2021/09/19 05:56:05;;;;;;;7.90;4.60;;;;;;;;;;5110629;28;20476;-75
2021/09/19 05:58:31;;;;;;;6.05;4.20;;;;;;;;;;5110697;28;20612;-69
2021/09/19 06:00:57;;;;;;;5.78;4.57;;;;;;;;;;5110411;28;20059;-69
2021/09/19 06:03:23;;;;;;;8.15;5.10;;;;;;;;;;5110804;28;20035;-73
2021/09/19 06:05:49;;;;;;;6.93;4.30;;;;;;;;;;5114386;28;20020;-65
2021/09/19 06:08:15;;;;;;;9.00;4.15;;;;;;;;;;5116697;27;20031;-71
2021/09/19 06:10:42;;;;;;;5.95;4.57;;;;;;;;;;5114578;28;20081;-72
2021/09/19 06:13:08;;;;;;;9.23;5.38;;;;;;;;;;5113875;28;20040;-65
2021/09/19 06:15:34;;;;;;;13.05;5.68;;;;;;;;;;5114546;27;20085;-71
2021/09/19 06:18:00;;;;;;;15.10;5.03;;;;;;;;;;5115301;28;20094;-63
2021/09/19 06:20:27;;;;;;;10.30;5.38;;;;;;;;;;5114632;28;20046;-74
2021/09/19 06:22:53;;;;;;;9.07;5.38;;;;;;;;;;5114590;28;20027;-68
2021/09/19 06:25:19;;;;;;;8.80;5.10;;;;;;;;;;5114512;28;20108;-70
2021/09/19 06:27:45;;;;;;;10.30;5.45;;;;;;;;;;5114338;28;20031;-73
2021/09/19 06:30:11;;;;;;;9.70;4.88;;;;;;;;;;5112879;27;20028;-72
2021/09/19 06:32:37;;;;;;;7.45;5.32;;;;;;;;;;5114922;28;20110;-70
2021/09/19 06:35:04;;;;;;;7.30;4.38;;;;;;;;;;5115090;28;20031;-69
2021/09/19 06:37:30;;;;;;;7.22;4.60;;;;;;;;;;5114306;28;20024;-71
2021/09/19 06:39:56;;;;;;;6.07;4.55;;;;;;;;;;5114628;28;20020;-67
2021/09/19 06:42:22;;;;;;;6.85;4.75;;;;;;;;;;5112052;28;20023;-73
2021/09/19 06:44:49;;;;;;;7.57;5.07;;;;;;;;;;5115878;27;20032;-73
2021/09/19 06:47:16;;;;;;;8.93;5.20;;;;;;;;;;5113972;28;20023;-69
2021/09/19 06:49:42;;;;;;;7.68;5.18;;;;;;;;;;5114687;28;20102;-77
2021/09/19 06:52:08;;;;;;;9.13;4.72;;;;;;;;;;5114126;28;20027;-70
2021/09/19 06:54:37;;;;;;;6.70;4.38;;;;;;;;;;5114096;28;20062;-70
2021/09/19 06:57:03;;;;;;;11.48;4.10;;;;;;;;;;5112905;28;20055;-73
2021/09/19 06:59:29;;;;;;;10.27;4.43;;;;;;;;;;5114596;28;20036;-75
2021/09/19 07:02:30;;;;;;;12.98;4.10;;;;;;;;;;5112497;27;20042;-72
2021/09/19 07:04:56;;;;;;;6.93;3.95;;;;;;;;;;5051005;28;20608;-75
2021/09/19 07:07:22;;;;;;;8.70;3.97;;;;;;;;;;5051935;28;20033;-74
2021/09/19 07:09:50;;;;;;;7.07;3.90;;;;;;;;;;5050889;28;20047;-67
2021/09/19 07:12:16;;;;;;;5.78;3.95;;;;;;;;;;5050791;28;20034;-73
2021/09/19 07:14:42;;;;;;;5.78;3.50;;;;;;;;;;5051179;28;20229;-73
2021/09/19 07:17:08;;;;;;;4.93;3.10;;;;;;;;;;5049937;28;20091;-70
2021/09/19 07:19:35;;;;;;;4.78;3.45;;;;;;;;;;5051706;28;20446;-70
2021/09/19 07:22:01;;;;;;;4.35;3.30;;;;;;;;;;5050656;28;20044;-70
2021/09/19 07:24:27;;;;;;;4.95;3.83;;;;;;;;;;5050434;28;20052;-73
2021/09/19 07:26:53;;;;;;;7.60;4.05;;;;;;;;;;5051926;28;20028;-71
2021/09/19 07:29:44;;;;;;;7.13;4.30;;;;;;;;;;5050671;28;20044;-70
2021/09/19 07:32:13;;;;;;;6.63;4.78;;;;;;;;;;5048950;28;20041;-73
2021/09/19 07:37:43;;;;;;;6.28;3.22;;;;;;;;;;5010592;28;20050;-74
2021/09/19 07:40:09;;;;;;;7.03;3.67;;;;;;;;;;5010293;28;20496;-73
2021/09/19 07:42:35;;;;;;;5.30;3.28;;;;;;;;;;5039623;28;20048;-74
2021/09/19 07:45:05;;;;;;;14.00;3.40;;;;;;;;;;5045997;28;20402;-72
2021/09/19 07:47:31;;;;;;;5.30;3.17;;;;;;;;;;5040531;28;20068;-75
2021/09/19 07:49:57;;;;;;;5.97;3.58;;;;;;;;;;5027003;28;20482;-78
2021/09/19 07:52:24;;;;;;;6.93;3.20;;;;;;;;;;5043207;28;20486;-81
2021/09/19 07:54:54;;;;;;;3.88;2.90;;;;;;;;;;5050362;28;20736;-77
2021/09/19 07:57:23;;;;;;;4.38;2.92;;;;;;;;;;5042906;28;20059;-75
2021/09/19 08:00:02;;;;;;;4.88;2.90;;;;;;;;;;5031232;28;20143;-73
2021/09/19 08:02:33;;;;;;;4.45;2.90;;;;;;;;;;5043472;28;20479;-73
2021/09/19 08:05:23;;;;;;;4.22;2.80;;;;;;;;;;5027488;28;20032;-71
2021/09/19 08:07:49;;;;;;;4.00;2.90;;;;;;;;;;5004661;28;20030;-73
2021/09/19 08:10:16;;;;;;;4.82;2.63;;;;;;;;;;5010303;28;20037;-73
2021/09/19 08:12:46;;;;;;;4.70;2.80;;;;;;;;;;5020110;28;20037;-72
2021/09/19 08:15:12;;;;;;;5.03;3.10;;;;;;;;;;5066499;28;20503;-73
2021/09/19 08:17:39;;;;;;;5.15;3.10;;;;;;;;;;5070173;28;20536;-72
2021/09/19 08:20:06;;;;;;;5.40;3.00;;;;;;;;;;5069587;28;20036;-73
2021/09/19 08:22:32;;;;;;;18.90;4.28;;;;;;;;;;5070162;28;20056;-73
2021/09/19 08:25:00;;;;;;;5.15;3.05;;;;;;;;;;5070246;28;20033;-73
2021/09/19 08:27:27;;;;;;;5.18;3.20;;;;;;;;;;5051445;28;20159;-67
2021/09/19 08:29:53;;;;;;;7.15;3.72;;;;;;;;;;5069381;28;20059;-66
2021/09/19 08:32:19;;;;;;;4.60;2.83;;;;;;;;;;5088730;28;20063;-69
2021/09/19 08:34:45;;;;;;;9.23;3.15;;;;;;;;;;5112177;28;20050;-65
2021/09/19 08:37:12;;;;;;;4.00;3.15;;;;;;;;;;5111359;28;20124;-68
2021/09/19 08:39:38;;;;;;;6.68;3.05;;;;;;;;;;5112347;28;20059;-67
2021/09/19 08:42:04;;;;;;;6.32;3.47;;;;;;;;;;5109646;28;20031;-66
2021/09/19 08:44:30;;;;;;;5.43;3.10;;;;;;;;;;5112181;28;20028;-81
2021/09/19 08:46:58;;;;;;;3.85;3.00;;;;;;;;;;5093570;28;20058;-76
2021/09/19 08:49:24;;;;;;;5.50;2.90;;;;;;;;;;5093135;28;20122;-72
2021/09/19 08:51:50;;;;;;;4.75;3.00;;;;;;;;;;5110744;28;20034;-74
2021/09/19 08:54:20;;;;;;;6.22;3.05;;;;;;;;;;5110055;28;20177;-71
2021/09/19 08:59:58;;;;;;;3.20;2.83;;;;;;;;;;5028155;28;20044;-71
2021/09/19 09:02:50;;;;;;;8.68;2.97;;;;;;;;;;5029286;28;20546;-71
2021/09/19 09:05:20;;;;;;;4.25;2.60;;;;;;;;;;5029542;28;20552;-75
2021/09/19 09:07:56;;;;;;;3.85;2.70;;;;;;;;;;5027925;28;20107;-74
2021/09/19 09:10:29;;;;;;;4.63;3.00;;;;;;;;;;5010561;28;20041;-75
2021/09/19 09:13:02;;;;;;;6.55;3.20;;;;;;;;;;5027586;28;20034;-71
2021/09/19 09:15:35;;;;;;;5.90;2.75;;;;;;;;;;5013014;28;20033;-76
2021/09/19 09:20:55;;;;;;;9.57;3.35;;;;;;;;;;5022832;28;20068;-76
2021/09/19 09:23:50;;;;;;;6.05;2.95;;;;;;;;;;5027626;28;20029;-75
2021/09/19 09:26:21;;;;;;;4.93;2.90;;;;;;;;;;5006477;28;20033;-75
2021/09/19 09:28:49;;;;;;;3.45;2.97;;;;;;;;;;5012100;28;20156;-72
2021/09/19 09:31:21;;;;;;;3.95;3.10;;;;;;;;;;5027471;28;20554;-74
2021/09/19 09:33:57;;;;;;;4.38;2.60;;;;;;;;;;4998249;28;20048;-76
2021/09/19 09:36:36;;;;;;;4.45;2.80;;;;;;;;;;5053991;28;20031;-74
2021/09/19 09:39:20;;;;;;;3.38;2.72;;;;;;;;;;5092635;28;20118;-74
2021/09/19 09:41:46;;;;;;;7.05;2.80;;;;;;;;;;5109710;27;20035;-78
2021/09/19 09:44:34;;;;;;;3.55;2.78;;;;;;;;;;5113875;27;20385;-78
2021/09/19 09:47:03;;;;;;;3.90;2.80;;;;;;;;;;5094329;28;20132;-71
2021/09/19 09:49:37;;;;;;;4.57;3.10;;;;;;;;;;5114759;27;20031;-72
2021/09/19 09:52:12;;;;;;;7.38;3.78;;;;;;;;;;5113352;28;20072;-78
2021/09/19 09:54:50;;;;;;;3.35;2.75;;;;;;;;;;5109780;28;20479;-76
2021/09/19 10:00:30;;;;;;;;;;;;;;;;;;5028235;28;20048;-72
2021/09/19 10:02:56;;;;;;;6.47;2.78;;;;;;;;;;5030144;28;19909;-72
2021/09/19 10:05:25;;;;;;;7.13;3.33;;;;;;;;;;5027286;28;20049;-76
2021/09/19 10:07:51;;;;;;;5.95;3.58;;;;;;;;;;5027293;28;20123;-75
2021/09/19 10:10:19;;;;;;;6.70;2.90;;;;;;;;;;5027143;28;20512;-76
2021/09/19 10:12:47;;;;;;;5.75;2.80;;;;;;;;;;5032836;28;20402;-76
2021/09/19 10:15:14;;;;;;;6.97;2.90;;;;;;;;;;5016708;28;20439;-75
2021/09/19 10:17:45;;;;;;;4.75;3.65;;;;;;;;;;5015854;28;20095;-84
2021/09/19 10:20:13;;;;;;;5.18;3.83;;;;;;;;;;5027147;28;20040;-78
2021/09/19 10:22:51;;;;;;;5.25;2.90;;;;;;;;;;5030765;28;20045;-80
2021/09/19 10:25:20;;;;;;;4.95;2.80;;;;;;;;;;5007788;28;20072;-82
2021/09/19 10:27:49;;;;;;;4.68;2.60;;;;;;;;;;5015039;28;20075;-87
2021/09/19 10:30:18;;;;;;;5.13;2.80;;;;;;;;;;5032458;28;20049;-86
2021/09/19 10:32:46;;;;;;;3.00;2.60;;;;;;;;;;5030497;28;20030;-84
2021/09/19 10:35:18;;;;;;;3.13;2.55;;;;;;;;;;5030538;28;20133;-74
2021/09/19 10:38:07;;;;;;;4.07;2.80;;;;;;;;;;5101293;27;20047;-74
2021/09/19 10:40:35;;;;;;;6.95;2.83;;;;;;;;;;5110010;28;20454;-74
2021/09/19 10:43:02;;;;;;;4.75;2.85;;;;;;;;;;5114328;28;20016;-75
2021/09/19 10:45:55;;;;;;;7.60;3.50;;;;;;;;;;5115844;27;20020;-75
2021/09/19 10:48:29;;;;;;;4.65;3.30;;;;;;;;;;5088540;28;20035;-75
2021/09/19 10:51:06;;;;;;;3.53;2.85;;;;;;;;;;5111122;28;20024;-74
2021/09/19 10:53:33;;;;;;;5.15;3.28;;;;;;;;;;5109414;28;20488;-72
2021/09/19 10:56:00;;;;;;;4.72;3.00;;;;;;;;;;5095840;28;20016;-71
2021/09/19 10:58:39;;;;;;;4.13;3.40;;;;;;;;;;5113683;28;20020;-72
2021/09/19 11:01:16;;;;;;;4.25;2.90;;;;;;;;;;5113740;28;20052;-73
2021/09/19 11:03:46;;;;;;;5.95;2.55;;;;;;;;;;5109935;28;20028;-74
2021/09/19 11:06:29;;;;;;;4.45;3.03;;;;;;;;;;5113764;28;20023;-73
2021/09/19 11:08:55;;;;;;;6.30;3.08;;;;;;;;;;5113359;28;20164;-72
2021/09/19 11:11:23;;;;;;;3.33;2.47;;;;;;;;;;5112668;28;20023;-71
2021/09/19 11:13:55;;;;;;;4.78;2.90;;;;;;;;;;5112377;28;20035;-72
2021/09/19 11:16:51;;;;;;;4.87;2.87;;;;;;;;;;5112039;28;20039;-73
2021/09/19 11:19:22;;;;;;;5.70;2.90;;;;;;;;;;5091969;28;20040;-76
2021/09/19 11:21:51;;;;;;;3.58;2.70;;;;;;;;;;5109181;28;20497;-76
2021/09/19 11:24:19;;;;;;;6.82;3.10;;;;;;;;;;5112584;28;20035;-75
2021/09/19 11:26:52;;;;;;;3.42;2.53;;;;;;;;;;5114305;28;20472;-74
2021/09/19 11:29:19;;;;;;;3.97;2.80;;;;;;;;;;5111709;28;20024;-73
2021/09/19 11:31:46;;;;;;;5.47;3.10;;;;;;;;;;5112391;28;20057;-72
2021/09/19 11:34:14;;;;;;;3.42;2.58;;;;;;;;;;5093960;28;20158;-75
2021/09/19 11:36:44;;;;;;;5.15;2.50;;;;;;;;;;5113649;28;20099;-75
2021/09/19 11:39:11;;;;;;;3.85;2.17;;;;;;;;;;5105760;27;20034;-74
2021/09/19 11:41:37;;;;;;;2.30;2.10;;;;;;;;;;5111247;28;20023;-75
2021/09/19 11:44:03;;;;;;;4.63;2.88;;;;;;;;;;5113573;27;20024;-74
2021/09/19 11:46:30;;;;;;;3.08;2.40;;;;;;;;;;5112466;27;20042;-74
2021/09/19 11:48:56;;;;;;;2.22;1.90;;;;;;;;;;5094946;28;20036;-67
2021/09/19 11:51:23;;;;;;;2.67;2.13;;;;;;;;;;5112455;28;20020;-66
2021/09/19 11:53:53;;;;;;;3.85;2.47;;;;;;;;;;5110364;28;20038;-70
2021/09/19 11:56:22;;;;;;;4.72;2.67;;;;;;;;;;5113536;28;20388;-67
2021/09/19 11:58:49;;;;;;;6.57;3.03;;;;;;;;;;5113563;28;20036;-66
2021/09/19 12:01:15;;;;;;;4.40;2.60;;;;;;;;;;5092946;28;20038;-68
2021/09/19 12:03:41;;;;;;;3.95;2.40;;;;;;;;;;5112941;28;20034;-67
2021/09/19 12:06:08;;;;;;;5.35;2.67;;;;;;;;;;5094645;28;20028;-68
2021/09/19 12:08:35;;;;;;;5.78;2.33;;;;;;;;;;5112804;28;20023;-67
2021/09/19 12:11:02;;;;;;;3.85;2.10;;;;;;;;;;5113022;28;20043;-73
2021/09/19 12:13:29;;;;;;;4.75;1.95;;;;;;;;;;5112585;27;20066;-73
2021/09/19 12:16:01;;;;;;;2.33;2.00;;;;;;;;;;5111911;28;20036;-72
2021/09/19 12:22:23;;;;;;;2.88;2.20;;;;;;;;;;4998334;28;20072;-73
2021/09/19 12:29:16;;;;;;;2.38;2.10;;;;;;;;;;4891165;29;20052;-74
2021/09/19 12:31:41;;;;;;;2.97;2.47;;;;;;;;;;4856965;29;20037;-71
2021/09/19 12:34:08;;;;;;;3.17;2.10;;;;;;;;;;4854281;29;20115;-71
2021/09/19 12:36:57;;;;;;;3.70;2.33;;;;;;;;;;4860047;29;20599;-72
2021/09/19 12:39:24;;;;;;;2.83;2.38;;;;;;;;;;4856273;29;20060;-73
2021/09/19 12:41:55;;;;;;;3.72;2.05;;;;;;;;;;4857865;29;20041;-71
2021/09/19 12:44:22;;;;;;;2.65;2.13;;;;;;;;;;4861585;29;20447;-70
2021/09/19 12:46:50;;;;;;;2.70;2.10;;;;;;;;;;4858164;29;20044;-70
2021/09/19 12:49:23;;;;;;;2.28;1.90;;;;;;;;;;4868501;29;20098;-71
2021/09/19 12:52:04;;;;;;;3.25;2.30;;;;;;;;;;4854058;29;20057;-73
2021/09/19 12:54:30;;;;;;;6.43;2.30;;;;;;;;;;4838596;29;20520;-69
2021/09/19 12:56:56;;;;;;;3.17;2.40;;;;;;;;;;4857016;29;20042;-73
2021/09/19 12:59:22;;;;;;;4.90;2.78;;;;;;;;;;4882254;29;20091;-72
2021/09/19 13:01:51;;;;;;;3.80;2.42;;;;;;;;;;4949972;28;20026;-76
2021/09/19 13:04:17;;;;;;;5.95;2.65;;;;;;;;;;4987771;28;20038;-69
2021/09/19 13:06:45;;;;;;;2.30;2.10;;;;;;;;;;5051646;28;20037;-73
2021/09/19 13:09:13;;;;;;;2.13;2.00;;;;;;;;;;5112390;27;20020;-74
2021/09/19 13:11:44;;;;;;;6.70;2.80;;;;;;;;;;5112320;28;20034;-75
2021/09/19 13:14:13;;;;;;;3.08;2.40;;;;;;;;;;5110798;28;20032;-72
2021/09/19 13:16:39;;;;;;;3.40;2.30;;;;;;;;;;5112038;27;20035;-74
2021/09/19 13:19:06;;;;;;;6.07;2.30;;;;;;;;;;5110923;28;20119;-74
2021/09/19 13:21:32;;;;;;;4.25;2.20;;;;;;;;;;5111530;28;20551;-79
2021/09/19 13:23:58;;;;;;;2.75;2.10;;;;;;;;;;5110997;28;20034;-73
2021/09/19 13:26:24;;;;;;;4.47;2.15;;;;;;;;;;5111252;28;20468;-74
2021/09/19 13:28:50;;;;;;;3.55;1.90;;;;;;;;;;5112341;28;20427;-74
2021/09/19 13:31:16;;;;;;;6.82;2.38;;;;;;;;;;5109520;28;20032;-78
2021/09/19 13:33:42;;;;;;;2.45;2.08;;;;;;;;;;5111568;28;20040;-78
2021/09/19 13:36:08;;;;;;;2.08;1.90;;;;;;;;;;5111680;28;20039;-72
2021/09/19 13:38:40;;;;;;;5.00;2.33;;;;;;;;;;5105694;28;20477;-75
2021/09/19 13:41:07;;;;;;;2.20;2.00;;;;;;;;;;5108398;28;20525;-75
2021/09/19 13:43:33;;;;;;;3.17;2.40;;;;;;;;;;5109757;28;20016;-78
2021/09/19 13:45:59;;;;;;;4.20;2.58;;;;;;;;;;5112029;28;20031;-69
2021/09/19 13:48:26;;;;;;;4.00;2.65;;;;;;;;;;5093899;28;20020;-72
2021/09/19 13:50:52;;;;;;;3.28;2.40;;;;;;;;;;5111695;28;20028;-78
2021/09/19 13:53:18;;;;;;;2.63;2.22;;;;;;;;;;5108419;28;20060;-72
2021/09/19 13:55:45;;;;;;;2.92;2.30;;;;;;;;;;5111476;28;20058;-78
2021/09/19 13:58:12;;;;;;;2.28;2.08;;;;;;;;;;5111395;28;20501;-76
2021/09/19 14:00:38;;;;;;;4.78;2.40;;;;;;;;;;5110012;28;20602;-77
2021/09/19 14:03:04;;;;;;;3.33;2.50;;;;;;;;;;5109806;28;20087;-77
2021/09/19 14:05:30;;;;;;;8.02;2.05;;;;;;;;;;5110600;28;20024;-78
2021/09/19 14:07:57;;;;;;;3.88;2.28;;;;;;;;;;5112083;28;20384;-78
2021/09/19 14:10:23;;;;;;;2.65;2.17;;;;;;;;;;5111860;28;20469;-77
2021/09/19 14:12:49;;;;;;;3.13;2.28;;;;;;;;;;5111087;28;20031;-75
2021/09/19 14:15:15;;;;;;;3.35;2.58;;;;;;;;;;5110124;28;20032;-78
2021/09/19 14:17:41;;;;;;;2.92;2.33;;;;;;;;;;5111688;28;20035;-78
2021/09/19 14:20:09;;;;;;;3.67;2.65;;;;;;;;;;5111506;28;20024;-74
2021/09/19 14:22:35;;;;;;;3.65;2.50;;;;;;;;;;5108564;28;20048;-76
2021/09/19 14:25:04;;;;;;;3.25;2.58;;;;;;;;;;5097100;28;20093;-71
2021/09/19 14:27:30;;;;;;;2.97;2.42;;;;;;;;;;5097883;28;20028;-75
2021/09/19 14:29:56;;;;;;;2.95;2.40;;;;;;;;;;5100296;28;20032;-78
2021/09/19 14:32:32;;;;;;;5.07;2.50;;;;;;;;;;5104064;28;20471;-74
2021/09/19 14:34:59;;;;;;;4.15;2.70;;;;;;;;;;5106550;28;20571;-76
2021/09/19 14:37:26;;;;;;;6.60;3.13;;;;;;;;;;5102683;28;20028;-83
2021/09/19 14:39:52;;;;;;;4.13;2.75;;;;;;;;;;5104282;28;20110;-74
2021/09/19 14:42:18;;;;;;;2.45;2.20;;;;;;;;;;5112221;28;20023;-74
2021/09/19 14:44:44;;;;;;;3.42;2.47;;;;;;;;;;5115186;28;20024;-76
2021/09/19 14:47:10;;;;;;;3.97;2.53;;;;;;;;;;5112836;28;20098;-75
2021/09/19 14:49:36;;;;;;;5.63;2.67;;;;;;;;;;5114359;28;20027;-74
2021/09/19 14:52:02;;;;;;;4.88;2.60;;;;;;;;;;5113921;28;20024;-73
2021/09/19 14:54:28;;;;;;;3.33;2.53;;;;;;;;;;5114017;28;20035;-71
2021/09/19 14:56:54;;;;;;;5.50;3.08;;;;;;;;;;5114887;28;20070;-70
2021/09/19 14:59:20;;;;;;;4.50;2.38;;;;;;;;;;5114373;28;20031;-76
2021/09/19 15:01:46;;;;;;;5.78;2.20;;;;;;;;;;5095230;28;20020;-78
2021/09/19 15:04:14;;;;;;;3.80;2.60;;;;;;;;;;5110680;28;21885;-77
2021/09/19 15:06:40;;;;;;;3.35;2.42;;;;;;;;;;5102818;28;20465;-77
2021/09/19 15:09:06;;;;;;;2.95;2.40;;;;;;;;;;5102210;28;20024;-74